Time;durP1;ratioP1;P1;durP2;ratioP2;P2;SDS_P1;SDS_P2;PMS_P1;PMS_P2;Temp;Humidity;BMP_temperature;BMP_pressure;BME280_temperature;BME280_humidity;BME280_pressure;Samples;Min_cycle;Max_cycle;Signal;HPM_P1;HPM_P2
2022/01/15 00:00:45;;;;;;;49.88;25.77;;;;;;;;;;5135909;28;20203;-68
2022/01/15 00:03:15;;;;;;;47.15;24.83;;;;;;;;;;5137967;27;20655;-68
2022/01/15 00:05:45;;;;;;;42.15;20.80;;;;;;;;;;5136168;27;20220;-68
2022/01/15 00:08:13;;;;;;;47.70;22.92;;;;;;;;;;5137788;28;20567;-68
2022/01/15 00:10:41;;;;;;;48.58;23.88;;;;;;;;;;5139146;27;20202;-68
2022/01/15 00:13:14;;;;;;;46.20;21.98;;;;;;;;;;5131249;28;20566;-68
2022/01/15 00:15:48;;;;;;;37.20;22.48;;;;;;;;;;5139842;27;20188;-68
2022/01/15 00:18:18;;;;;;;36.95;20.83;;;;;;;;;;5136178;27;20203;-68
2022/01/15 00:20:47;;;;;;;38.70;20.92;;;;;;;;;;5138126;27;20681;-68
2022/01/15 00:23:15;;;;;;;38.25;21.33;;;;;;;;;;5140437;27;20279;-69
2022/01/15 00:25:43;;;;;;;39.87;22.30;;;;;;;;;;5134930;27;20224;-69
2022/01/15 00:28:11;;;;;;;46.57;23.67;;;;;;;;;;5130495;27;20464;-68
2022/01/15 00:30:39;;;;;;;40.37;21.27;;;;;;;;;;5138519;27;20442;-68
2022/01/15 00:33:07;;;;;;;49.67;23.67;;;;;;;;;;5135756;27;20458;-68
2022/01/15 00:35:37;;;;;;;45.65;23.25;;;;;;;;;;5137011;27;20437;-68
2022/01/15 00:38:06;;;;;;;43.20;21.42;;;;;;;;;;5137000;27;20192;-68
2022/01/15 00:40:35;;;;;;;43.45;22.60;;;;;;;;;;5138849;27;20196;-68
2022/01/15 00:43:03;;;;;;;48.13;23.55;;;;;;;;;;5143130;27;20202;-68
2022/01/15 00:45:33;;;;;;;39.65;20.85;;;;;;;;;;5142627;27;20199;-68
2022/01/15 00:48:02;;;;;;;42.03;19.63;;;;;;;;;;5139041;27;20239;-68
2022/01/15 00:50:30;;;;;;;48.13;22.00;;;;;;;;;;5142574;27;20730;-68
2022/01/15 00:52:58;;;;;;;41.55;18.73;;;;;;;;;;5139645;27;20207;-67
2022/01/15 00:55:28;;;;;;;43.55;22.73;;;;;;;;;;5139103;27;20277;-68
2022/01/15 00:57:56;;;;;;;35.78;20.15;;;;;;;;;;5138481;27;20200;-68
2022/01/15 01:00:25;;;;;;;38.70;21.02;;;;;;;;;;5140697;27;20212;-68
2022/01/15 01:02:54;;;;;;;38.72;19.60;;;;;;;;;;5141856;27;20279;-68
2022/01/15 01:05:22;;;;;;;44.63;20.95;;;;;;;;;;5140913;27;20200;-68
2022/01/15 01:07:50;;;;;;;36.42;19.40;;;;;;;;;;5141315;27;20224;-67
2022/01/15 01:10:44;;;;;;;47.63;21.33;;;;;;;;;;5140362;27;20211;-68
2022/01/15 01:13:39;;;;;;;49.13;21.33;;;;;;;;;;5136194;27;20284;-68
2022/01/15 01:24:23;;;;;;;43.88;19.45;;;;;;;;;;5107713;27;20207;-68
2022/01/15 01:26:55;;;;;;;42.60;22.45;;;;;;;;;;5138244;27;20226;-69
2022/01/15 01:29:34;;;;;;;40.30;20.30;;;;;;;;;;5137457;27;20278;-68
2022/01/15 01:32:07;;;;;;;42.00;22.03;;;;;;;;;;5139927;27;20450;-69
2022/01/15 01:34:39;;;;;;;40.00;20.60;;;;;;;;;;5139770;27;20460;-68
2022/01/15 01:37:13;;;;;;;50.83;23.60;;;;;;;;;;5137356;27;20457;-68
2022/01/15 01:39:45;;;;;;;43.87;22.47;;;;;;;;;;5142541;27;20442;-68
2022/01/15 01:42:32;;;;;;;51.90;23.47;;;;;;;;;;5136157;27;20446;-68
2022/01/15 01:45:06;;;;;;;43.97;22.33;;;;;;;;;;5139713;27;20529;-69
2022/01/15 01:47:40;;;;;;;44.93;23.20;;;;;;;;;;5139478;27;20477;-69
2022/01/15 01:50:10;;;;;;;47.83;23.57;;;;;;;;;;5138469;27;21040;-69
2022/01/15 01:52:39;;;;;;;46.37;24.13;;;;;;;;;;5139545;27;20442;-68
2022/01/15 01:55:08;;;;;;;50.53;24.97;;;;;;;;;;5138911;27;21199;-68
2022/01/15 01:57:36;;;;;;;48.40;23.97;;;;;;;;;;5138716;27;20474;-68
2022/01/15 02:00:07;;;;;;;46.33;23.60;;;;;;;;;;5137457;27;20454;-68
2022/01/15 02:02:35;;;;;;;44.00;23.40;;;;;;;;;;5138731;27;20458;-68
2022/01/15 02:05:04;;;;;;;49.60;24.60;;;;;;;;;;5140042;27;20853;-68
2022/01/15 02:07:32;;;;;;;56.00;25.67;;;;;;;;;;5137759;27;20482;-68
2022/01/15 02:10:00;;;;;;;50.93;23.03;;;;;;;;;;5141595;27;20440;-68
2022/01/15 02:12:28;;;;;;;47.50;23.77;;;;;;;;;;5138981;27;20445;-68
2022/01/15 02:14:56;;;;;;;52.53;22.47;;;;;;;;;;5136002;27;20450;-68
2022/01/15 02:17:26;;;;;;;51.07;25.70;;;;;;;;;;5138622;27;21067;-68
2022/01/15 02:20:11;;;;;;;47.50;23.90;;;;;;;;;;5136397;27;20430;-68
2022/01/15 02:25:24;;;;;;;49.37;24.93;;;;;;;;;;5156866;27;20993;-70
2022/01/15 02:27:52;;;;;;;52.07;23.17;;;;;;;;;;5144564;27;20504;-70
2022/01/15 02:30:20;;;;;;;51.73;27.40;;;;;;;;;;5135386;27;20449;-69
2022/01/15 02:32:48;;;;;;;48.20;26.53;;;;;;;;;;5139555;27;20452;-69
2022/01/15 02:35:17;;;;;;;54.83;26.90;;;;;;;;;;5139750;27;20438;-69
2022/01/15 02:37:45;;;;;;;60.67;26.00;;;;;;;;;;5139433;27;20454;-69
2022/01/15 02:40:13;;;;;;;57.73;25.70;;;;;;;;;;5140000;27;20446;-69
2022/01/15 02:42:41;;;;;;;55.03;27.17;;;;;;;;;;5139793;27;20450;-69
2022/01/15 02:45:11;;;;;;;51.27;24.53;;;;;;;;;;5124764;27;20460;-69
2022/01/15 02:50:26;;;;;;;57.93;24.63;;;;;;;;;;5139864;27;20442;-69
2022/01/15 02:52:54;;;;;;;51.65;27.35;;;;;;;;;;5130300;27;20458;-69
2022/01/15 02:55:22;;;;;;;50.90;25.33;;;;;;;;;;5139561;27;20208;-69
2022/01/15 02:57:50;;;;;;;53.00;25.53;;;;;;;;;;5137496;27;20216;-69
2022/01/15 03:00:18;;;;;;;50.13;24.27;;;;;;;;;;5130430;27;20459;-69
2022/01/15 03:02:46;;;;;;;53.60;25.07;;;;;;;;;;5120710;27;20451;-69
2022/01/15 03:05:14;;;;;;;53.20;25.63;;;;;;;;;;5139266;27;20450;-69
2022/01/15 03:07:43;;;;;;;52.93;22.83;;;;;;;;;;5138923;27;20569;-69
2022/01/15 03:10:11;;;;;;;49.97;25.43;;;;;;;;;;5139283;27;20442;-69
2022/01/15 03:12:39;;;;;;;53.37;26.00;;;;;;;;;;5139012;27;20811;-69
2022/01/15 03:15:08;;;;;;;55.07;27.10;;;;;;;;;;5129613;27;20481;-69
2022/01/15 03:17:36;;;;;;;54.83;25.23;;;;;;;;;;5125272;27;20511;-69
2022/01/15 03:20:05;;;;;;;52.83;25.30;;;;;;;;;;5134587;27;20448;-69
2022/01/15 03:22:33;;;;;;;54.77;25.43;;;;;;;;;;5137185;27;20453;-69
2022/01/15 03:25:02;;;;;;;54.17;26.07;;;;;;;;;;5139046;27;20449;-69
2022/01/15 03:27:30;;;;;;;52.07;26.50;;;;;;;;;;5138976;27;20485;-69
2022/01/15 03:29:58;;;;;;;60.93;27.03;;;;;;;;;;5139048;27;20463;-69
2022/01/15 03:32:26;;;;;;;53.03;25.33;;;;;;;;;;5143020;27;20462;-70
2022/01/15 03:34:54;;;;;;;58.33;27.80;;;;;;;;;;5138641;27;20441;-68
2022/01/15 03:37:22;;;;;;;62.17;26.17;;;;;;;;;;5138319;27;20469;-69
2022/01/15 03:39:50;;;;;;;51.08;25.45;;;;;;;;;;5139026;27;20452;-69
2022/01/15 03:42:20;;;;;;;58.85;26.40;;;;;;;;;;5138833;27;20211;-69
2022/01/15 03:44:48;;;;;;;55.72;26.23;;;;;;;;;;5138674;27;20226;-69
2022/01/15 03:47:17;;;;;;;52.65;27.15;;;;;;;;;;5123995;28;20709;-68
2022/01/15 03:49:45;;;;;;;49.70;25.13;;;;;;;;;;5138366;27;20240;-69
2022/01/15 03:52:13;;;;;;;61.53;26.33;;;;;;;;;;5133371;27;20200;-69
2022/01/15 03:54:41;;;;;;;54.28;24.55;;;;;;;;;;5129808;28;20204;-68
2022/01/15 03:57:09;;;;;;;56.65;26.42;;;;;;;;;;5142779;27;20693;-69
2022/01/15 03:59:38;;;;;;;58.13;27.15;;;;;;;;;;5137402;28;20671;-69
2022/01/15 04:02:06;;;;;;;58.08;25.70;;;;;;;;;;5135163;28;20727;-69
2022/01/15 04:04:35;;;;;;;51.20;24.40;;;;;;;;;;5128080;28;20207;-69
2022/01/15 04:07:03;;;;;;;44.65;24.35;;;;;;;;;;5138268;28;20311;-68
2022/01/15 04:09:31;;;;;;;60.53;27.42;;;;;;;;;;5138245;28;20234;-69
2022/01/15 04:11:59;;;;;;;57.70;24.63;;;;;;;;;;5138492;28;20204;-68
2022/01/15 04:14:27;;;;;;;51.38;23.75;;;;;;;;;;5141478;27;20204;-68
2022/01/15 04:16:57;;;;;;;59.50;25.15;;;;;;;;;;5139642;27;20216;-69
2022/01/15 04:19:25;;;;;;;55.25;24.70;;;;;;;;;;5142193;27;20214;-69
2022/01/15 04:21:53;;;;;;;52.28;24.98;;;;;;;;;;5140196;27;20264;-68
2022/01/15 04:24:21;;;;;;;50.38;23.98;;;;;;;;;;5124493;27;20200;-69
2022/01/15 04:26:49;;;;;;;53.00;25.10;;;;;;;;;;5134478;27;20722;-69
2022/01/15 04:29:17;;;;;;;56.88;25.13;;;;;;;;;;5139570;27;20224;-69
2022/01/15 04:31:48;;;;;;;50.28;22.80;;;;;;;;;;5158686;27;20654;-69
2022/01/15 04:34:19;;;;;;;48.70;23.98;;;;;;;;;;5141975;27;20608;-68
2022/01/15 04:36:47;;;;;;;50.03;24.23;;;;;;;;;;5141619;27;20221;-69
2022/01/15 04:39:15;;;;;;;55.35;23.83;;;;;;;;;;5142093;27;20283;-68
2022/01/15 04:41:43;;;;;;;57.13;22.60;;;;;;;;;;5141901;27;20208;-69
2022/01/15 04:44:11;;;;;;;44.42;21.00;;;;;;;;;;5142101;27;20204;-69
2022/01/15 04:46:39;;;;;;;54.85;24.98;;;;;;;;;;5141956;27;20224;-69
2022/01/15 04:49:08;;;;;;;52.47;21.13;;;;;;;;;;5127247;27;20233;-69
2022/01/15 04:51:37;;;;;;;54.53;22.98;;;;;;;;;;5141709;27;20286;-69
2022/01/15 04:54:05;;;;;;;44.80;20.10;;;;;;;;;;5141603;27;20226;-69
2022/01/15 04:56:33;;;;;;;57.65;22.38;;;;;;;;;;5141857;27;20230;-69
2022/01/15 04:59:03;;;;;;;50.97;22.13;;;;;;;;;;5135268;27;20192;-68
2022/01/15 05:01:31;;;;;;;45.25;21.10;;;;;;;;;;5141672;27;20214;-68
2022/01/15 05:03:59;;;;;;;46.85;21.08;;;;;;;;;;5139550;27;20560;-68
2022/01/15 05:06:27;;;;;;;45.08;23.50;;;;;;;;;;5141257;27;20220;-68
2022/01/15 05:09:04;;;;;;;39.33;19.15;;;;;;;;;;5141417;27;20224;-68
2022/01/15 05:11:44;;;;;;;55.78;23.15;;;;;;;;;;5141440;27;20664;-68
2022/01/15 05:14:12;;;;;;;52.72;20.98;;;;;;;;;;5141629;27;20208;-68
2022/01/15 05:16:40;;;;;;;46.67;20.80;;;;;;;;;;5141246;27;20227;-68
2022/01/15 05:19:08;;;;;;;48.25;22.52;;;;;;;;;;5139705;27;20586;-69
2022/01/15 05:21:36;;;;;;;55.28;21.67;;;;;;;;;;5140743;27;20261;-68
2022/01/15 05:24:06;;;;;;;48.53;21.65;;;;;;;;;;5141219;27;20377;-68
2022/01/15 05:26:35;;;;;;;41.97;19.48;;;;;;;;;;5140784;27;20226;-68
2022/01/15 05:29:03;;;;;;;44.42;21.02;;;;;;;;;;5135457;27;20224;-68
2022/01/15 05:31:31;;;;;;;49.58;22.05;;;;;;;;;;5139307;27;20570;-68
2022/01/15 05:33:59;;;;;;;55.72;21.08;;;;;;;;;;5140056;27;20193;-69
2022/01/15 05:36:27;;;;;;;42.88;20.75;;;;;;;;;;5126440;27;20224;-69
2022/01/15 05:38:55;;;;;;;48.53;22.92;;;;;;;;;;5141241;27;20204;-69
2022/01/15 05:41:24;;;;;;;51.83;24.77;;;;;;;;;;5140993;27;20207;-69
2022/01/15 05:44:00;;;;;;;51.97;23.25;;;;;;;;;;5140763;27;20208;-68
2022/01/15 05:46:28;;;;;;;43.10;23.13;;;;;;;;;;5137728;27;20216;-68
2022/01/15 05:48:56;;;;;;;45.50;21.85;;;;;;;;;;5140273;27;20231;-68
2022/01/15 05:51:29;;;;;;;47.95;18.65;;;;;;;;;;5143446;27;20639;-68
2022/01/15 05:53:57;;;;;;;43.67;19.85;;;;;;;;;;5159741;27;20234;-68
2022/01/15 05:56:26;;;;;;;41.78;21.80;;;;;;;;;;5154655;27;20222;-68
2022/01/15 05:58:54;;;;;;;44.13;21.98;;;;;;;;;;5161007;27;20638;-68
2022/01/15 06:01:23;;;;;;;45.60;20.25;;;;;;;;;;5129041;27;20203;-68
2022/01/15 06:03:51;;;;;;;47.33;21.08;;;;;;;;;;5139443;27;20193;-68
2022/01/15 06:06:19;;;;;;;37.85;19.48;;;;;;;;;;5131083;27;20221;-69
2022/01/15 06:08:47;;;;;;;44.42;19.95;;;;;;;;;;5135266;27;20220;-68
2022/01/15 06:11:17;;;;;;;44.53;21.48;;;;;;;;;;5140213;27;20214;-68
2022/01/15 06:13:47;;;;;;;44.13;22.48;;;;;;;;;;5140326;27;20214;-69
2022/01/15 06:16:15;;;;;;;48.88;20.55;;;;;;;;;;5138390;27;20769;-68
2022/01/15 06:18:43;;;;;;;43.47;21.73;;;;;;;;;;5142200;27;20235;-68
2022/01/15 06:21:11;;;;;;;30.77;17.17;;;;;;;;;;5139560;27;20655;-68
2022/01/15 06:23:39;;;;;;;43.67;21.85;;;;;;;;;;5139507;27;20196;-68
2022/01/15 06:26:07;;;;;;;44.38;20.13;;;;;;;;;;5137146;27;20253;-68
2022/01/15 06:28:35;;;;;;;44.65;20.77;;;;;;;;;;5136652;27;20196;-68
2022/01/15 06:31:05;;;;;;;36.38;17.85;;;;;;;;;;5138111;27;20659;-68
2022/01/15 06:33:33;;;;;;;46.88;19.92;;;;;;;;;;5138130;27;20192;-68
2022/01/15 06:36:01;;;;;;;44.63;20.50;;;;;;;;;;5140340;27;20226;-68
2022/01/15 06:38:29;;;;;;;48.08;19.05;;;;;;;;;;5143359;27;20567;-68
2022/01/15 06:40:57;;;;;;;44.78;20.65;;;;;;;;;;5147592;27;20283;-68
2022/01/15 06:43:25;;;;;;;48.15;21.40;;;;;;;;;;5149035;27;20196;-68
2022/01/15 06:45:53;;;;;;;49.30;19.42;;;;;;;;;;5148496;27;20220;-68
2022/01/15 06:48:23;;;;;;;43.25;20.20;;;;;;;;;;5146225;27;20227;-68
2022/01/15 06:50:51;;;;;;;42.17;20.08;;;;;;;;;;5147395;27;20220;-68
2022/01/15 06:53:19;;;;;;;43.58;20.25;;;;;;;;;;5148386;27;20196;-69
2022/01/15 06:55:50;;;;;;;47.03;21.70;;;;;;;;;;5148030;27;20207;-69
2022/01/15 06:58:18;;;;;;;50.10;21.98;;;;;;;;;;5150384;27;20217;-68
2022/01/15 07:00:46;;;;;;;39.67;20.08;;;;;;;;;;5146924;27;20188;-69
2022/01/15 07:03:14;;;;;;;47.17;21.05;;;;;;;;;;5147437;27;20203;-68
2022/01/15 07:05:43;;;;;;;45.40;21.85;;;;;;;;;;5145216;27;20894;-68
2022/01/15 07:08:11;;;;;;;53.83;19.98;;;;;;;;;;5147326;27;20203;-68
2022/01/15 07:10:41;;;;;;;43.92;20.05;;;;;;;;;;5149882;27;20215;-68
2022/01/15 07:13:09;;;;;;;46.40;20.23;;;;;;;;;;5139749;27;20701;-68
2022/01/15 07:15:37;;;;;;;37.90;19.30;;;;;;;;;;5139042;27;20199;-68
2022/01/15 07:18:05;;;;;;;41.78;20.42;;;;;;;;;;5140176;27;20192;-68
2022/01/15 07:20:33;;;;;;;44.97;21.25;;;;;;;;;;5136394;27;20198;-69
2022/01/15 07:23:02;;;;;;;50.33;19.42;;;;;;;;;;5137199;27;20200;-68
2022/01/15 07:25:30;;;;;;;46.13;20.08;;;;;;;;;;5140566;27;20207;-68
2022/01/15 07:27:58;;;;;;;43.72;22.17;;;;;;;;;;5139437;27;20686;-69
2022/01/15 07:30:27;;;;;;;41.63;18.73;;;;;;;;;;5132177;27;20220;-68
2022/01/15 07:32:55;;;;;;;46.50;20.48;;;;;;;;;;5140511;27;20202;-71
2022/01/15 07:35:23;;;;;;;60.50;22.80;;;;;;;;;;5136503;27;20226;-70
2022/01/15 07:37:51;;;;;;;47.90;21.38;;;;;;;;;;5135253;27;20582;-72
2022/01/15 07:40:21;;;;;;;50.28;23.45;;;;;;;;;;5132253;27;20193;-71
2022/01/15 07:42:49;;;;;;;39.30;19.63;;;;;;;;;;5137574;27;20259;-71
2022/01/15 07:45:17;;;;;;;53.78;22.15;;;;;;;;;;5134369;27;20203;-73
2022/01/15 07:47:45;;;;;;;49.63;21.05;;;;;;;;;;5137086;27;20699;-73
2022/01/15 07:50:17;;;;;;;55.40;22.35;;;;;;;;;;5134196;27;20246;-73
2022/01/15 07:52:45;;;;;;;51.33;22.30;;;;;;;;;;5138755;27;20269;-73
2022/01/15 07:55:13;;;;;;;56.70;24.20;;;;;;;;;;5140499;27;20211;-69
2022/01/15 07:58:02;;;;;;;45.80;21.67;;;;;;;;;;5145372;27;20195;-71
2022/01/15 08:00:30;;;;;;;45.72;20.55;;;;;;;;;;5144551;27;20192;-73
2022/01/15 08:02:58;;;;;;;47.30;21.73;;;;;;;;;;5144474;27;20282;-74
2022/01/15 08:05:26;;;;;;;53.50;24.85;;;;;;;;;;5137616;28;20283;-73
2022/01/15 08:07:54;;;;;;;55.80;23.38;;;;;;;;;;5138368;28;20223;-73
2022/01/15 08:10:22;;;;;;;51.28;24.20;;;;;;;;;;5131711;28;20217;-73
2022/01/15 08:12:50;;;;;;;46.63;21.85;;;;;;;;;;5131204;28;20208;-71
2022/01/15 08:15:20;;;;;;;49.92;22.55;;;;;;;;;;5140177;27;20214;-69
2022/01/15 08:17:48;;;;;;;57.65;23.25;;;;;;;;;;5137005;27;20259;-71
2022/01/15 08:20:16;;;;;;;59.97;23.67;;;;;;;;;;5140301;27;20199;-71
2022/01/15 08:22:45;;;;;;;58.53;23.08;;;;;;;;;;5146046;27;20201;-70
2022/01/15 08:25:13;;;;;;;51.97;22.90;;;;;;;;;;5145921;27;20203;-70
2022/01/15 08:27:41;;;;;;;53.38;22.27;;;;;;;;;;5145890;27;20287;-71
2022/01/15 08:30:10;;;;;;;47.67;22.58;;;;;;;;;;5141101;27;20230;-71
2022/01/15 08:32:39;;;;;;;50.78;22.23;;;;;;;;;;5138855;27;20203;-71
2022/01/15 08:35:07;;;;;;;53.83;24.70;;;;;;;;;;5137795;28;20204;-71
2022/01/15 08:37:37;;;;;;;54.70;23.60;;;;;;;;;;5125344;27;20220;-70
2022/01/15 08:40:05;;;;;;;57.50;23.35;;;;;;;;;;5131215;28;20558;-70
2022/01/15 08:42:33;;;;;;;58.95;25.38;;;;;;;;;;5137032;28;20201;-71
2022/01/15 08:45:01;;;;;;;59.45;24.95;;;;;;;;;;5137793;28;20300;-71
2022/01/15 08:47:29;;;;;;;52.85;23.33;;;;;;;;;;5137764;28;20311;-71
2022/01/15 08:50:00;;;;;;;59.22;22.75;;;;;;;;;;5137541;28;20240;-71
2022/01/15 08:52:28;;;;;;;59.13;25.23;;;;;;;;;;5137694;28;20212;-71
2022/01/15 08:54:56;;;;;;;54.22;22.77;;;;;;;;;;5137935;28;20201;-71
2022/01/15 08:57:24;;;;;;;51.67;23.00;;;;;;;;;;5142464;27;20219;-70
2022/01/15 08:59:52;;;;;;;57.83;23.20;;;;;;;;;;5125159;27;20679;-71
2022/01/15 09:02:20;;;;;;;60.15;25.08;;;;;;;;;;5123291;27;20193;-71
2022/01/15 09:04:48;;;;;;;57.92;25.65;;;;;;;;;;5123159;27;20251;-70
2022/01/15 09:07:17;;;;;;;58.92;23.55;;;;;;;;;;5121391;27;20687;-71
2022/01/15 09:09:45;;;;;;;54.95;24.70;;;;;;;;;;5121733;27;20280;-71
2022/01/15 09:12:15;;;;;;;56.55;24.25;;;;;;;;;;5120820;27;20227;-68
2022/01/15 09:14:43;;;;;;;59.75;27.77;;;;;;;;;;5122608;27;20220;-73
2022/01/15 09:17:12;;;;;;;54.95;24.73;;;;;;;;;;5124264;27;20766;-73
2022/01/15 09:19:40;;;;;;;56.80;24.95;;;;;;;;;;5123607;27;20520;-74
2022/01/15 09:22:11;;;;;;;71.05;27.60;;;;;;;;;;5122187;27;20211;-73
2022/01/15 09:24:44;;;;;;;63.42;26.05;;;;;;;;;;5149249;27;20197;-73
2022/01/15 09:30:13;;;;;;;62.42;26.38;;;;;;;;;;5143020;27;20196;-73
2022/01/15 09:32:41;;;;;;;71.18;27.35;;;;;;;;;;5145856;27;20196;-72
2022/01/15 09:35:10;;;;;;;66.28;25.52;;;;;;;;;;5145030;27;20287;-73
2022/01/15 09:37:38;;;;;;;60.58;25.77;;;;;;;;;;5145820;27;20216;-72
2022/01/15 09:40:09;;;;;;;69.97;27.00;;;;;;;;;;5137604;27;20291;-72
2022/01/15 09:42:38;;;;;;;72.43;25.40;;;;;;;;;;5126437;27;20196;-72
2022/01/15 09:45:07;;;;;;;72.70;29.25;;;;;;;;;;5129164;27;20197;-72
2022/01/15 09:47:35;;;;;;;83.28;28.92;;;;;;;;;;5130081;27;20228;-73
2022/01/15 09:50:05;;;;;;;69.68;26.38;;;;;;;;;;5130232;27;20225;-73
2022/01/15 09:52:33;;;;;;;61.58;27.95;;;;;;;;;;5132086;27;20217;-73
2022/01/15 09:55:01;;;;;;;65.13;27.15;;;;;;;;;;5134158;27;20222;-73
2022/01/15 09:57:31;;;;;;;69.88;27.73;;;;;;;;;;5132948;27;20226;-73
2022/01/15 09:59:59;;;;;;;65.85;28.88;;;;;;;;;;5127216;27;20192;-73
2022/01/15 10:02:27;;;;;;;64.35;28.95;;;;;;;;;;5133149;27;20199;-73
2022/01/15 10:04:55;;;;;;;66.57;27.40;;;;;;;;;;5129102;27;20683;-72
2022/01/15 10:07:27;;;;;;;63.20;26.45;;;;;;;;;;5138238;27;20228;-73
2022/01/15 10:09:56;;;;;;;59.88;23.17;;;;;;;;;;5143123;27;20285;-72
2022/01/15 10:12:25;;;;;;;66.93;27.77;;;;;;;;;;5145586;27;20213;-72
2022/01/15 10:14:57;;;;;;;68.78;27.60;;;;;;;;;;5142731;27;20200;-72
2022/01/15 10:17:26;;;;;;;58.65;24.92;;;;;;;;;;5144472;27;20216;-73
2022/01/15 10:19:54;;;;;;;69.55;27.42;;;;;;;;;;5142993;27;20200;-73
2022/01/15 10:22:23;;;;;;;61.30;26.65;;;;;;;;;;5149991;27;20202;-74
2022/01/15 10:24:52;;;;;;;68.45;27.58;;;;;;;;;;5149990;27;20294;-74
2022/01/15 10:27:21;;;;;;;55.90;26.17;;;;;;;;;;5155241;27;20235;-74
2022/01/15 10:29:50;;;;;;;62.85;25.17;;;;;;;;;;5137781;27;20581;-73
2022/01/15 10:32:20;;;;;;;69.32;28.33;;;;;;;;;;5130490;27;20226;-73
2022/01/15 10:34:48;;;;;;;59.08;26.27;;;;;;;;;;5138614;27;20200;-70
2022/01/15 10:37:17;;;;;;;67.25;27.45;;;;;;;;;;5139338;27;20226;-73
2022/01/15 10:39:54;;;;;;;65.55;26.80;;;;;;;;;;5139366;27;20673;-72
2022/01/15 10:42:23;;;;;;;59.95;25.95;;;;;;;;;;5139307;27;20196;-73
2022/01/15 10:44:52;;;;;;;60.10;26.70;;;;;;;;;;5138331;27;20206;-73
2022/01/15 10:47:22;;;;;;;70.93;26.90;;;;;;;;;;5139213;27;20220;-73
2022/01/15 10:49:51;;;;;;;56.35;26.48;;;;;;;;;;5139214;27;20246;-73
2022/01/15 10:52:20;;;;;;;67.75;28.08;;;;;;;;;;5138677;27;20662;-73
2022/01/15 10:54:52;;;;;;;67.00;25.50;;;;;;;;;;5137631;27;20282;-73
2022/01/15 10:57:20;;;;;;;51.05;23.35;;;;;;;;;;5139147;27;20249;-65
2022/01/15 11:00:12;;;;;;;58.33;25.77;;;;;;;;;;5146783;27;20196;-72
2022/01/15 11:02:42;;;;;;;59.25;25.02;;;;;;;;;;5125132;27;20199;-72
2022/01/15 11:05:32;;;;;;;57.15;27.02;;;;;;;;;;5149110;27;20290;-73
2022/01/15 11:08:08;;;;;;;61.20;25.35;;;;;;;;;;5139390;27;20212;-73
2022/01/15 11:10:40;;;;;;;55.55;24.95;;;;;;;;;;5138806;27;20295;-73
2022/01/15 11:13:11;;;;;;;50.20;24.35;;;;;;;;;;5137656;27;20230;-73
2022/01/15 11:15:39;;;;;;;54.33;24.45;;;;;;;;;;5138834;27;20287;-73
2022/01/15 11:18:11;;;;;;;52.08;23.75;;;;;;;;;;5138655;27;20205;-74
2022/01/15 11:20:40;;;;;;;64.97;28.23;;;;;;;;;;5138543;27;20204;-73
2022/01/15 11:23:08;;;;;;;54.58;26.02;;;;;;;;;;5134804;27;20204;-73
2022/01/15 11:25:35;;;;;;;61.95;26.73;;;;;;;;;;5127509;27;20685;-73
2022/01/15 11:28:05;;;;;;;58.35;25.95;;;;;;;;;;5138439;27;20206;-74
2022/01/15 11:30:34;;;;;;;63.58;27.33;;;;;;;;;;5129797;27;20201;-73
2022/01/15 11:33:03;;;;;;;66.55;28.52;;;;;;;;;;5136059;27;20220;-74
2022/01/15 11:35:40;;;;;;;69.38;28.05;;;;;;;;;;5143352;27;20728;-74
2022/01/15 11:38:08;;;;;;;68.10;29.20;;;;;;;;;;5144035;27;20196;-73
2022/01/15 11:40:37;;;;;;;68.47;27.10;;;;;;;;;;5137137;27;20207;-74
2022/01/15 11:43:23;;;;;;;62.22;25.50;;;;;;;;;;5137752;27;20215;-73
2022/01/15 11:45:52;;;;;;;68.43;26.92;;;;;;;;;;5136361;27;20220;-73
2022/01/15 11:48:20;;;;;;;63.67;27.35;;;;;;;;;;5137594;27;20236;-73
2022/01/15 11:51:14;;;;;;;66.28;27.55;;;;;;;;;;5137765;27;20287;-73
2022/01/15 11:53:46;;;;;;;49.47;23.75;;;;;;;;;;5131620;27;20743;-73
2022/01/15 11:56:17;;;;;;;63.97;27.45;;;;;;;;;;5129098;28;20303;-73
2022/01/15 11:58:45;;;;;;;60.70;25.77;;;;;;;;;;5136891;28;20202;-73
2022/01/15 12:01:28;;;;;;;61.30;28.20;;;;;;;;;;5132827;27;20197;-73
2022/01/15 12:04:11;;;;;;;65.40;27.40;;;;;;;;;;5134836;28;20456;-73
2022/01/15 12:06:54;;;;;;;54.30;26.53;;;;;;;;;;5134139;28;20219;-73
2022/01/15 12:09:33;;;;;;;62.70;28.03;;;;;;;;;;5125775;28;20452;-73
2022/01/15 12:12:01;;;;;;;60.30;29.23;;;;;;;;;;5138243;28;20560;-73
2022/01/15 12:14:48;;;;;;;62.23;26.80;;;;;;;;;;5138293;28;20473;-73
2022/01/15 12:17:23;;;;;;;59.05;28.75;;;;;;;;;;5136672;28;20988;-73
2022/01/15 12:19:51;;;;;;;54.35;25.35;;;;;;;;;;5137984;28;20731;-73
2022/01/15 12:22:34;;;;;;;71.40;26.43;;;;;;;;;;5137470;28;20286;-73
2022/01/15 12:25:04;;;;;;;64.88;28.73;;;;;;;;;;5138142;28;20446;-73
2022/01/15 12:27:33;;;;;;;62.95;25.55;;;;;;;;;;5137932;28;20230;-73
2022/01/15 12:30:03;;;;;;;63.80;25.33;;;;;;;;;;5146004;27;20677;-73
2022/01/15 12:32:31;;;;;;;64.68;28.75;;;;;;;;;;5122952;28;21105;-73
2022/01/15 12:35:00;;;;;;;66.43;28.60;;;;;;;;;;5138798;27;20260;-73
2022/01/15 12:37:28;;;;;;;62.13;28.88;;;;;;;;;;5133527;27;20224;-73
2022/01/15 12:39:56;;;;;;;67.80;27.85;;;;;;;;;;5133250;27;20227;-73
2022/01/15 12:42:32;;;;;;;68.85;29.17;;;;;;;;;;5139706;27;20571;-73
2022/01/15 12:45:01;;;;;;;69.88;28.23;;;;;;;;;;5139577;27;20207;-73
2022/01/15 12:47:42;;;;;;;61.67;27.77;;;;;;;;;;5138701;27;20212;-73
2022/01/15 12:50:10;;;;;;;63.17;26.38;;;;;;;;;;5139276;27;20315;-73
2022/01/15 12:52:38;;;;;;;52.30;26.50;;;;;;;;;;5139864;27;20224;-73
2022/01/15 12:55:06;;;;;;;56.75;24.92;;;;;;;;;;5141558;27;20438;-73
2022/01/15 12:57:52;;;;;;;74.20;29.03;;;;;;;;;;5145586;27;20223;-73
2022/01/15 13:00:23;;;;;;;61.28;26.80;;;;;;;;;;5135578;27;20459;-73
2022/01/15 13:02:54;;;;;;;67.70;26.88;;;;;;;;;;5139207;27;20275;-73
2022/01/15 13:05:24;;;;;;;68.22;28.80;;;;;;;;;;5139341;27;20295;-72
2022/01/15 13:07:53;;;;;;;76.15;28.65;;;;;;;;;;5130898;27;20224;-73
2022/01/15 13:10:26;;;;;;;59.92;26.67;;;;;;;;;;5138128;27;20208;-73
2022/01/15 13:12:55;;;;;;;76.50;27.77;;;;;;;;;;5141076;27;20220;-73
2022/01/15 13:15:25;;;;;;;73.78;31.40;;;;;;;;;;5140942;27;20296;-73
2022/01/15 13:17:53;;;;;;;71.70;29.33;;;;;;;;;;5139837;27;20299;-73
2022/01/15 13:20:32;;;;;;;60.35;28.38;;;;;;;;;;5137984;27;20212;-73
2022/01/15 13:23:00;;;;;;;67.82;27.45;;;;;;;;;;5141059;27;20287;-74
2022/01/15 13:25:29;;;;;;;70.15;29.38;;;;;;;;;;5139858;27;20245;-73
2022/01/15 13:27:57;;;;;;;75.97;31.20;;;;;;;;;;5140790;27;20283;-73
2022/01/15 13:30:27;;;;;;;69.43;28.93;;;;;;;;;;5147440;27;20441;-74
2022/01/15 13:32:57;;;;;;;67.95;30.23;;;;;;;;;;5145473;27;20488;-73
2022/01/15 13:35:29;;;;;;;71.05;30.95;;;;;;;;;;5139482;27;20631;-73
2022/01/15 13:37:58;;;;;;;67.70;30.52;;;;;;;;;;5140514;27;20299;-73
2022/01/15 13:40:27;;;;;;;69.18;31.95;;;;;;;;;;5140850;27;20208;-73
2022/01/15 13:42:55;;;;;;;69.60;31.77;;;;;;;;;;5140300;27;20288;-73
2022/01/15 13:45:24;;;;;;;65.25;28.55;;;;;;;;;;5140397;27;20303;-73
2022/01/15 13:47:54;;;;;;;70.03;30.27;;;;;;;;;;5139636;27;20725;-72
2022/01/15 13:53:11;;;;;;;86.82;29.85;;;;;;;;;;5140314;27;20224;-73
2022/01/15 13:55:39;;;;;;;75.47;31.70;;;;;;;;;;5141311;27;20204;-73
2022/01/15 13:58:08;;;;;;;72.45;29.17;;;;;;;;;;5140712;27;20287;-74
2022/01/15 14:00:36;;;;;;;72.53;33.13;;;;;;;;;;5139297;27;20214;-73
2022/01/15 14:03:06;;;;;;;66.60;28.43;;;;;;;;;;5138064;27;20462;-73
2022/01/15 14:05:34;;;;;;;63.00;28.10;;;;;;;;;;5139697;27;20450;-74
2022/01/15 14:08:09;;;;;;;72.07;29.33;;;;;;;;;;5140586;27;20452;-73
2022/01/15 14:10:38;;;;;;;59.47;29.30;;;;;;;;;;5140342;27;20776;-73
2022/01/15 14:13:07;;;;;;;67.50;29.63;;;;;;;;;;5140186;27;21107;-73
2022/01/15 14:15:36;;;;;;;67.90;27.88;;;;;;;;;;5140029;27;20438;-73
2022/01/15 14:18:11;;;;;;;63.80;27.73;;;;;;;;;;5138988;27;20646;-73
2022/01/15 14:21:16;;;;;;;73.65;34.30;;;;;;;;;;5139835;27;20204;-72
2022/01/15 14:23:43;;;;;;;60.77;30.70;;;;;;;;;;5140036;27;20290;-74
2022/01/15 14:26:18;;;;;;;67.73;29.57;;;;;;;;;;5139067;27;20465;-73
2022/01/15 14:28:46;;;;;;;58.55;28.25;;;;;;;;;;5140333;27;20524;-73
2022/01/15 14:31:14;;;;;;;65.22;30.20;;;;;;;;;;5147286;27;20727;-73
2022/01/15 14:33:46;;;;;;;61.97;27.98;;;;;;;;;;5130811;27;20591;-73
2022/01/15 14:36:15;;;;;;;77.55;30.50;;;;;;;;;;5139439;27;20252;-73
2022/01/15 14:38:43;;;;;;;65.80;27.43;;;;;;;;;;5126077;27;20678;-73
2022/01/15 14:41:11;;;;;;;55.20;28.57;;;;;;;;;;5139825;27;20466;-73
2022/01/15 14:43:39;;;;;;;62.87;27.00;;;;;;;;;;5139978;27;20466;-73
2022/01/15 14:46:08;;;;;;;63.27;28.67;;;;;;;;;;5139743;27;20470;-73
2022/01/15 14:48:36;;;;;;;62.97;29.10;;;;;;;;;;5139352;27;20538;-73
2022/01/15 14:51:06;;;;;;;63.37;30.27;;;;;;;;;;5138516;27;20850;-73